Time;durP1;ratioP1;P1;durP2;ratioP2;P2;SDS_P1;SDS_P2;PMS_P1;PMS_P2;Temp;Humidity;BMP_temperature;BMP_pressure;BME280_temperature;BME280_humidity;BME280_pressure;Samples;Min_cycle;Max_cycle;Signal;HPM_P1;HPM_P2
2023/06/30 08:57:06;;;;;;;7.80;2.30;;;;;;;18.36;55.68;101257.13;5065776;28;20452;-70
2023/06/30 08:59:31;;;;;;;6.57;2.13;;;;;;;18.38;55.22;101253.00;5048852;28;20034;-68
2023/06/30 09:01:57;;;;;;;4.47;1.92;;;;;;;18.33;54.49;101258.47;5042675;28;20056;-68
2023/06/30 09:04:23;;;;;;;3.85;1.70;;;;;;;18.35;55.02;101249.97;5044535;28;20025;-68
2023/06/30 09:06:50;;;;;;;3.60;1.77;;;;;;;18.42;55.99;101248.63;5049012;28;20032;-68
2023/06/30 09:09:24;;;;;;;4.75;1.90;;;;;;;18.50;55.42;101255.50;5048228;28;20033;-68
2023/06/30 09:11:51;;;;;;;6.25;1.90;;;;;;;18.62;56.42;101251.72;5049300;28;20025;-69
2023/06/30 09:14:17;;;;;;;8.13;1.85;;;;;;;18.69;55.28;101255.03;5048361;28;20032;-68
2023/06/30 09:16:42;;;;;;;6.55;2.13;;;;;;;18.78;55.16;101261.63;5049512;28;20029;-68
2023/06/30 09:19:08;;;;;;;5.82;2.15;;;;;;;18.81;54.45;101258.38;5047949;28;20037;-68
2023/06/30 09:21:33;;;;;;;5.55;2.10;;;;;;;18.87;53.81;101251.84;5046050;28;20025;-66
2023/06/30 09:23:59;;;;;;;7.47;2.30;;;;;;;18.94;53.27;101252.38;5041904;28;20029;-67
2023/06/30 09:26:29;;;;;;;7.88;1.88;;;;;;;19.03;54.14;101243.63;5047565;28;20075;-70
2023/06/30 09:28:54;;;;;;;5.22;1.88;;;;;;;19.03;52.35;101249.09;5039090;28;20105;-69
2023/06/30 09:31:27;;;;;;;7.07;2.40;;;;;;;18.95;53.25;101250.47;5048468;28;20025;-69
2023/06/30 09:33:53;;;;;;;8.20;2.10;;;;;;;18.98;52.25;101240.84;5046811;28;20381;-69
2023/06/30 09:36:18;;;;;;;6.57;2.10;;;;;;;18.85;50.83;101245.78;5048915;28;20044;-69
2023/06/30 09:38:44;;;;;;;9.98;1.92;;;;;;;18.86;52.11;101244.69;5046701;28;20029;-66
2023/06/30 09:41:20;;;;;;;6.72;1.92;;;;;;;19.15;53.46;101249.66;5044721;28;20116;-68
2023/06/30 09:43:45;;;;;;;4.43;1.85;;;;;;;19.12;50.68;101236.50;5057125;28;20380;-67
2023/06/30 09:46:11;;;;;;;4.22;1.80;;;;;;;19.31;51.59;101234.03;5053408;28;20041;-67
2023/06/30 09:48:38;;;;;;;4.38;1.88;;;;;;;19.36;50.35;101244.19;5059427;28;20365;-68
2023/06/30 09:51:04;;;;;;;4.43;1.80;;;;;;;19.29;49.98;101237.06;5048694;28;20033;-67
2023/06/30 09:53:40;;;;;;;5.10;1.80;;;;;;;19.29;51.32;101241.72;5036702;28;20036;-67
2023/06/30 09:56:08;;;;;;;4.00;1.90;;;;;;;19.30;50.37;101238.69;5028695;28;20501;-67
2023/06/30 09:58:35;;;;;;;3.83;1.63;;;;;;;19.35;51.15;101235.13;5031645;28;20116;-67
2023/06/30 10:01:01;;;;;;;4.82;1.80;;;;;;;19.44;51.08;101236.22;5035843;28;20033;-68
2023/06/30 10:03:26;;;;;;;7.72;1.80;;;;;;;19.49;49.83;101238.16;5028848;28;20032;-66
2023/06/30 10:05:52;;;;;;;6.03;1.92;;;;;;;19.60;49.81;101239.78;5038325;28;20041;-66
2023/06/30 10:08:21;;;;;;;5.90;1.95;;;;;;;19.57;49.31;101240.34;5035763;28;20036;-69
2023/06/30 10:10:47;;;;;;;6.20;1.77;;;;;;;19.56;48.85;101235.94;5032418;28;20064;-67
2023/06/30 10:13:15;;;;;;;4.35;1.92;;;;;;;19.74;50.42;101236.47;5035050;28;20026;-67
2023/06/30 10:15:40;;;;;;;6.50;1.80;;;;;;;19.73;47.77;101223.81;5034930;28;20108;-67
2023/06/30 10:18:09;;;;;;;3.75;1.98;;;;;;;19.89;49.16;101227.41;5034989;28;20499;-68
2023/06/30 10:20:35;;;;;;;3.92;1.75;;;;;;;19.94;48.13;101219.97;5033866;28;20055;-67
2023/06/30 10:23:01;;;;;;;3.35;1.73;;;;;;;19.80;46.61;101221.66;5034806;28;20353;-68
2023/06/30 10:25:29;;;;;;;3.75;1.73;;;;;;;19.69;47.71;101217.25;5033385;28;20123;-72
2023/06/30 10:27:55;;;;;;;6.25;2.00;;;;;;;19.71;47.84;101210.38;5033662;28;20036;-68
2023/06/30 10:30:21;;;;;;;3.13;1.70;;;;;;;19.74;48.14;101211.75;5033195;28;20120;-67
2023/06/30 10:32:47;;;;;;;6.05;1.88;;;;;;;19.79;48.95;101214.50;5033825;28;20030;-69
2023/06/30 10:35:14;;;;;;;4.43;1.80;;;;;;;19.87;48.27;101213.13;5031753;28;20037;-68
2023/06/30 10:37:40;;;;;;;3.42;1.80;;;;;;;20.07;48.71;101215.00;5033485;28;20033;-70
2023/06/30 10:40:27;;;;;;;5.47;1.80;;;;;;;20.20;49.10;101203.41;5034172;28;20025;-72
2023/06/30 10:42:57;;;;;;;4.55;1.77;;;;;;;20.19;45.99;101204.50;5033384;28;20057;-71
2023/06/30 10:45:32;;;;;;;4.75;1.70;;;;;;;20.24;46.86;101209.16;5033195;28;20033;-71
2023/06/30 10:48:08;;;;;;;2.85;1.45;;;;;;;20.32;47.35;101212.16;5030888;28;20091;-68
2023/06/30 10:50:41;;;;;;;4.45;1.83;;;;;;;20.41;46.45;101206.03;5034192;28;20029;-68
2023/06/30 10:53:17;;;;;;;4.57;1.88;;;;;;;20.45;46.21;101193.38;5032906;28;20040;-69
2023/06/30 10:55:43;;;;;;;4.20;2.03;;;;;;;20.53;46.25;101198.28;5028378;28;20054;-70
2023/06/30 10:58:09;;;;;;;6.47;2.00;;;;;;;20.56;45.92;101192.22;5013177;28;20465;-68
2023/06/30 11:00:34;;;;;;;3.45;1.98;;;;;;;20.50;45.54;101196.09;5013604;28;20040;-67
2023/06/30 11:03:05;;;;;;;4.53;1.90;;;;;;;20.44;46.31;101194.47;5034191;28;20025;-68
2023/06/30 11:05:33;;;;;;;4.32;1.85;;;;;;;20.45;46.42;101185.94;5032726;28;20030;-69
2023/06/30 11:08:01;;;;;;;4.32;1.67;;;;;;;20.50;47.68;101182.34;5033927;28;20497;-68
2023/06/30 11:10:27;;;;;;;4.20;1.60;;;;;;;20.51;48.08;101179.31;5033119;28;20030;-68
2023/06/30 11:12:56;;;;;;;3.92;1.63;;;;;;;20.55;47.53;101182.34;5023416;28;20037;-69
2023/06/30 11:15:33;;;;;;;5.95;1.80;;;;;;;20.59;47.09;101188.88;5029329;28;20036;-68
2023/06/30 11:18:02;;;;;;;5.25;1.90;;;;;;;20.78;47.36;101180.84;5012571;28;20033;-71
2023/06/30 11:20:29;;;;;;;6.40;1.98;;;;;;;21.06;47.85;101178.41;5012184;28;20033;-69
2023/06/30 11:23:06;;;;;;;3.15;1.92;;;;;;;20.84;46.50;101182.44;5012904;28;20370;-69
2023/06/30 11:25:33;;;;;;;6.45;2.10;;;;;;;20.78;45.83;101180.84;5021327;28;20025;-69
2023/06/30 11:28:04;;;;;;;4.75;1.90;;;;;;;20.77;46.79;101181.94;5031358;28;20547;-69
2023/06/30 11:30:37;;;;;;;4.43;1.73;;;;;;;20.70;47.11;101185.00;5031604;28;20030;-69
2023/06/30 11:33:04;;;;;;;5.85;2.05;;;;;;;20.74;46.13;101177.00;5033019;28;20037;-69
2023/06/30 11:35:32;;;;;;;4.28;2.25;;;;;;;20.77;45.88;101170.94;5030541;28;20033;-69
2023/06/30 11:37:58;;;;;;;6.05;2.30;;;;;;;20.95;46.81;101166.66;5033022;28;20083;-69
2023/06/30 11:40:23;;;;;;;4.38;2.30;;;;;;;20.93;45.82;101173.59;5032973;28;20021;-69
2023/06/30 11:42:54;;;;;;;5.30;2.35;;;;;;;21.05;46.33;101172.09;5033130;28;20132;-69
2023/06/30 11:45:20;;;;;;;6.70;2.50;;;;;;;21.03;45.03;101165.22;5031626;28;20029;-69
2023/06/30 11:47:51;;;;;;;4.63;2.53;;;;;;;21.18;45.70;101170.63;5013027;28;20041;-69
2023/06/30 11:50:17;;;;;;;;;;;;;;;21.42;48.05;101159.66;5013477;28;20022;-69
2023/06/30 11:52:47;;;;;;;9.10;3.35;;;;;;;21.59;46.13;101169.44;5013054;28;19909;-69
2023/06/30 11:55:13;;;;;;;7.03;3.30;;;;;;;21.38;45.55;101160.53;5023288;28;20058;-69
2023/06/30 11:57:40;;;;;;;7.35;3.00;;;;;;;21.39;46.20;101160.25;5030651;28;20037;-69
2023/06/30 12:00:10;;;;;;;3.88;2.50;;;;;;;21.18;45.59;101154.09;5032596;28;20376;-69
2023/06/30 12:02:35;;;;;;;7.35;2.60;;;;;;;21.25;47.18;101159.25;5027762;28;20063;-69
2023/06/30 12:05:04;;;;;;;5.05;2.78;;;;;;;21.30;46.54;101164.72;5031552;28;20459;-69
2023/06/30 12:07:31;;;;;;;4.30;2.60;;;;;;;21.30;47.09;101155.66;5031188;28;20030;-69
2023/06/30 12:10:00;;;;;;;5.03;2.55;;;;;;;21.23;45.76;101156.00;5031953;28;20037;-69
2023/06/30 12:12:29;;;;;;;5.38;2.65;;;;;;;21.35;46.17;101148.16;5030871;28;20017;-69
2023/06/30 12:14:56;;;;;;;3.92;2.88;;;;;;;21.42;45.13;101151.41;5029342;28;20026;-69
2023/06/30 12:17:25;;;;;;;7.15;2.90;;;;;;;21.48;45.32;101143.88;5032112;28;20099;-69
2023/06/30 12:19:50;;;;;;;10.32;3.25;;;;;;;21.56;46.18;101142.50;5032153;28;20535;-69
2023/06/30 12:22:24;;;;;;;7.95;3.03;;;;;;;21.56;46.28;101148.00;5030128;28;20034;-69
2023/06/30 12:24:54;;;;;;;8.40;2.60;;;;;;;21.78;47.16;101161.22;5028473;28;20029;-69
2023/06/30 12:27:19;;;;;;;7.68;3.22;;;;;;;21.73;45.44;101142.81;5028324;28;20469;-69
2023/06/30 12:29:46;;;;;;;6.80;3.00;;;;;;;21.80;45.64;101152.66;5028595;28;20034;-69
2023/06/30 12:32:15;;;;;;;7.13;3.30;;;;;;;21.87;45.70;101136.59;5027144;28;20030;-70
2023/06/30 12:34:40;;;;;;;7.75;3.05;;;;;;;21.87;46.02;101139.38;5032287;28;20040;-69
2023/06/30 12:37:05;;;;;;;4.75;2.75;;;;;;;21.75;45.31;101135.06;5030961;28;20129;-69
2023/06/30 12:39:32;;;;;;;8.82;3.40;;;;;;;21.69;45.27;101135.44;5028434;28;20029;-69
2023/06/30 12:41:57;;;;;;;6.75;3.20;;;;;;;21.69;45.20;101136.25;5032312;28;20452;-69
2023/06/30 12:44:22;;;;;;;5.38;2.83;;;;;;;21.90;46.11;101122.25;5032381;28;20026;-70
2023/06/30 12:47:08;;;;;;;5.60;2.95;;;;;;;22.13;47.26;101124.16;5028688;28;20492;-70
2023/06/30 12:49:37;;;;;;;6.25;3.00;;;;;;;21.93;44.93;101116.94;5032144;28;20040;-70
2023/06/30 12:52:03;;;;;;;7.53;3.08;;;;;;;21.71;45.27;101101.00;5030409;28;20419;-71
2023/06/30 12:54:28;;;;;;;9.75;2.90;;;;;;;21.80;46.59;101112.19;5012766;28;20037;-70
2023/06/30 12:56:54;;;;;;;14.23;2.90;;;;;;;21.95;46.20;101102.88;5012232;28;20053;-70
2023/06/30 12:59:20;;;;;;;5.30;2.60;;;;;;;21.98;45.89;101115.25;5024246;28;20025;-71
2023/06/30 13:01:52;;;;;;;7.53;2.70;;;;;;;21.82;45.50;101107.19;5025371;28;20033;-71
2023/06/30 13:04:18;;;;;;;3.60;2.15;;;;;;;21.67;45.53;101110.13;5028260;28;20598;-72
2023/06/30 13:06:43;;;;;;;8.23;2.70;;;;;;;21.85;47.45;101106.59;5031073;28;20061;-71
2023/06/30 13:09:09;;;;;;;8.68;2.33;;;;;;;21.94;45.88;101101.25;5032145;28;20018;-71
2023/06/30 13:11:34;;;;;;;5.88;1.95;;;;;;;22.06;45.23;101098.88;5030673;28;20457;-70
2023/06/30 13:13:59;;;;;;;4.93;2.10;;;;;;;22.10;44.73;101097.19;5031122;28;20078;-71
2023/06/30 13:16:25;;;;;;;4.47;1.92;;;;;;;22.24;45.38;101097.25;5032017;28;20060;-69
2023/06/30 13:18:50;;;;;;;5.22;2.20;;;;;;;22.39;44.62;101098.16;5032197;28;20168;-70
2023/06/30 13:21:16;;;;;;;6.60;2.28;;;;;;;22.53;43.59;101093.53;5029517;28;20029;-71
2023/06/30 13:23:42;;;;;;;4.55;1.98;;;;;;;22.52;43.33;101088.31;5029159;28;20033;-70
2023/06/30 13:26:07;;;;;;;8.52;2.28;;;;;;;22.36;43.96;101088.56;5032241;28;20126;-70
2023/06/30 13:28:33;;;;;;;4.07;2.28;;;;;;;22.23;44.69;101081.81;5032285;28;20029;-72
2023/06/30 13:30:59;;;;;;;6.22;2.05;;;;;;;22.18;45.27;101076.41;5029276;28;20037;-71
2023/06/30 13:33:27;;;;;;;8.05;2.50;;;;;;;22.04;44.72;101075.50;5028960;28;20029;-70
2023/06/30 13:35:52;;;;;;;7.30;2.20;;;;;;;21.94;45.11;101074.50;5030774;28;20036;-71
2023/06/30 13:38:18;;;;;;;6.40;2.15;;;;;;;21.87;44.74;101076.00;5032196;28;20029;-71
2023/06/30 13:40:43;;;;;;;5.80;1.90;;;;;;;21.94;45.22;101077.28;5030332;28;20125;-72
2023/06/30 13:43:08;;;;;;;6.38;2.20;;;;;;;22.10;44.06;101075.13;5031847;28;20387;-71
2023/06/30 13:45:34;;;;;;;6.25;1.90;;;;;;;22.21;44.51;101064.78;5033488;28;20437;-73
2023/06/30 13:47:59;;;;;;;3.22;2.00;;;;;;;22.13;43.97;101062.69;5032142;28;20523;-69
2023/06/30 13:50:25;;;;;;;4.47;2.00;;;;;;;22.06;45.04;101057.53;5030658;28;20044;-70
2023/06/30 13:52:51;;;;;;;6.32;1.90;;;;;;;21.98;43.94;101065.66;5033076;28;20034;-73
2023/06/30 13:55:17;;;;;;;6.25;1.95;;;;;;;21.93;44.37;101053.59;5033695;28;20077;-72
2023/06/30 13:57:42;;;;;;;5.18;1.90;;;;;;;22.06;44.44;101049.28;5035907;28;20025;-72
2023/06/30 14:00:09;;;;;;;3.42;1.80;;;;;;;22.31;44.52;101047.28;5032804;28;20033;-70
2023/06/30 14:02:35;;;;;;;5.07;1.77;;;;;;;22.52;43.44;101042.25;5033122;28;20045;-71
2023/06/30 14:05:00;;;;;;;3.67;1.70;;;;;;;22.59;43.45;101047.41;5035178;28;20025;-71
2023/06/30 14:07:25;;;;;;;5.15;1.90;;;;;;;22.74;42.98;101027.81;5035189;28;20044;-72
2023/06/30 14:09:51;;;;;;;5.85;2.05;;;;;;;22.81;42.20;101027.41;5034531;28;20543;-70
2023/06/30 14:12:16;;;;;;;5.20;1.75;;;;;;;23.05;42.37;101031.97;5034902;28;20080;-71
2023/06/30 14:14:42;;;;;;;5.25;1.70;;;;;;;23.03;41.28;101021.22;5035164;28;20108;-72
2023/06/30 14:17:08;;;;;;;4.93;1.92;;;;;;;23.28;42.00;101013.59;5033867;28;20457;-70
2023/06/30 14:19:34;;;;;;;3.83;1.75;;;;;;;23.40;41.82;101022.19;5033154;28;20053;-73
2023/06/30 14:21:59;;;;;;;5.30;1.88;;;;;;;23.39;40.95;101005.94;5035179;28;20032;-72
2023/06/30 14:24:24;;;;;;;5.53;1.50;;;;;;;23.58;39.89;101012.13;5033641;28;20116;-73
2023/06/30 14:26:49;;;;;;;3.70;1.75;;;;;;;23.57;39.90;101006.91;5034203;28;20038;-73
2023/06/30 14:29:15;;;;;;;4.60;1.65;;;;;;;23.58;40.60;101011.31;5033884;28;20037;-72
2023/06/30 14:31:40;;;;;;;2.92;1.50;;;;;;;23.72;41.63;101014.88;5034969;28;20037;-70
2023/06/30 14:34:06;;;;;;;6.30;1.85;;;;;;;23.61;40.66;101006.00;5032465;28;20040;-69
2023/06/30 14:36:31;;;;;;;6.55;1.73;;;;;;;23.34;41.00;101004.06;5034710;28;20060;-72
2023/06/30 14:38:56;;;;;;;4.07;1.52;;;;;;;23.16;42.03;101006.66;5034854;28;20117;-72
2023/06/30 14:41:22;;;;;;;3.70;1.40;;;;;;;23.14;41.54;101014.44;5031773;28;20065;-73
2023/06/30 14:43:47;;;;;;;4.50;1.77;;;;;;;23.06;40.92;101006.81;5033182;28;20064;-69
2023/06/30 14:46:13;;;;;;;3.35;1.60;;;;;;;22.94;41.42;101012.03;5015113;28;20045;-71
2023/06/30 14:48:39;;;;;;;7.57;1.75;;;;;;;23.08;41.87;100998.22;5032523;28;20384;-69
2023/06/30 14:51:05;;;;;;;4.57;1.55;;;;;;;23.32;41.45;101001.63;5023557;28;20685;-73
2023/06/30 14:53:30;;;;;;;3.30;1.60;;;;;;;23.42;40.60;100992.31;5032783;28;20017;-70
2023/06/30 14:55:56;;;;;;;6.35;1.73;;;;;;;23.50;41.55;100999.06;5032885;28;20488;-72
2023/06/30 14:58:22;;;;;;;5.38;1.92;;;;;;;23.34;41.37;100999.38;5034583;28;20108;-72
2023/06/30 15:00:47;;;;;;;5.95;1.90;;;;;;;23.14;41.88;100997.88;5031608;28;20203;-71
2023/06/30 15:03:12;;;;;;;2.42;1.50;;;;;;;22.94;42.00;100995.47;5034523;28;20052;-70
2023/06/30 15:05:38;;;;;;;3.60;1.60;;;;;;;22.78;42.13;101000.44;5032053;28;20442;-72
2023/06/30 15:08:05;;;;;;;4.38;1.63;;;;;;;22.70;42.95;100993.69;5029109;28;20068;-73
2023/06/30 15:10:31;;;;;;;5.18;1.85;;;;;;;22.86;42.64;100985.13;5034181;28;20032;-73
2023/06/30 15:12:56;;;;;;;3.20;1.50;;;;;;;23.06;43.50;100979.22;5034248;28;20025;-70
2023/06/30 15:15:21;;;;;;;6.70;1.90;;;;;;;23.11;41.60;100981.88;5033852;28;20026;-70
2023/06/30 15:17:47;;;;;;;8.25;2.03;;;;;;;23.10;41.75;100974.75;5032212;28;20388;-72
2023/06/30 15:20:12;;;;;;;4.45;1.55;;;;;;;23.03;41.44;100968.78;5028500;28;20112;-73
2023/06/30 15:22:38;;;;;;;3.65;1.40;;;;;;;23.20;40.94;100970.16;5031170;28;20029;-69
2023/06/30 15:25:03;;;;;;;4.85;1.60;;;;;;;23.47;41.19;100972.88;5031388;28;20036;-71
2023/06/30 15:27:29;;;;;;;5.20;1.60;;;;;;;23.66;40.46;100963.63;5033757;28;20468;-73
2023/06/30 15:29:54;;;;;;;5.75;1.73;;;;;;;23.81;41.02;100957.75;5030012;28;20033;-67
2023/06/30 15:32:19;;;;;;;2.53;1.70;;;;;;;23.70;41.16;100959.09;5025979;28;20175;-68
2023/06/30 15:34:45;;;;;;;3.42;1.67;;;;;;;23.56;40.83;100958.34;5033660;28;20445;-68
2023/06/30 15:37:11;;;;;;;3.92;1.48;;;;;;;23.47;40.17;100961.81;5027392;28;20029;-68
2023/06/30 15:39:36;;;;;;;4.75;1.75;;;;;;;23.46;40.46;100962.97;5027560;28;20385;-69
2023/06/30 15:42:02;;;;;;;4.18;1.30;;;;;;;23.39;40.44;100962.56;5032590;28;20412;-69
2023/06/30 15:44:27;;;;;;;3.95;1.60;;;;;;;23.39;40.81;100959.81;5032013;28;20468;-69
2023/06/30 15:46:52;;;;;;;7.05;1.55;;;;;;;23.33;40.71;100952.75;5034066;28;20037;-71
2023/06/30 15:49:18;;;;;;;4.15;1.52;;;;;;;23.23;40.85;100955.72;5026927;28;20139;-66
2023/06/30 15:51:43;;;;;;;3.63;1.50;;;;;;;23.10;41.31;100951.84;5029266;28;20034;-70
2023/06/30 15:54:08;;;;;;;3.22;1.55;;;;;;;23.04;41.58;100947.50;5027549;28;20090;-69
2023/06/30 15:56:34;;;;;;;5.68;1.70;;;;;;;22.94;41.80;100948.56;5030444;28;20048;-67
2023/06/30 15:59:00;;;;;;;4.97;1.50;;;;;;;22.89;41.85;100948.63;5029611;28;20026;-68
2023/06/30 16:01:25;;;;;;;2.85;1.77;;;;;;;22.73;41.81;100948.13;5020195;28;20033;-68
2023/06/30 16:03:50;;;;;;;4.25;1.50;;;;;;;22.60;42.40;100939.53;5013787;28;20125;-72
2023/06/30 16:06:16;;;;;;;4.40;1.67;;;;;;;22.51;42.67;100941.38;5026320;28;20520;-70
